Time;durP1;ratioP1;P1;durP2;ratioP2;P2;SDS_P1;SDS_P2;PMS_P1;PMS_P2;Temp;Humidity;BMP_temperature;BMP_pressure;BME280_temperature;BME280_humidity;BME280_pressure;Samples;Min_cycle;Max_cycle;Signal;HPM_P1;HPM_P2
2021/12/04 00:00:41;;;;;;;8.25;1.30;;;20.10;99.90;;;;;;5064374;28;20178;-62
2021/12/04 00:03:08;;;;;;;10.63;1.63;;;20.10;99.90;;;;;;5052159;28;20206;-62
2021/12/04 00:05:35;;;;;;;11.15;2.30;;;20.20;99.90;;;;;;5047343;28;20190;-62
2021/12/04 00:08:02;;;;;;;11.45;1.60;;;20.20;99.90;;;;;;5053217;28;20186;-62
2021/12/04 00:10:31;;;;;;;13.35;2.05;;;20.30;99.90;;;;;;5056628;28;20174;-63
2021/12/04 00:12:58;;;;;;;6.38;2.00;;;20.30;99.90;;;;;;5048254;28;20194;-62
2021/12/04 00:15:25;;;;;;;8.43;2.03;;;20.30;99.90;;;;;;5056653;28;20255;-62
2021/12/04 00:17:53;;;;;;;6.93;2.53;;;20.30;99.90;;;;;;5059061;28;20292;-62
2021/12/04 00:20:24;;;;;;;9.80;1.90;;;20.20;99.90;;;;;;5058582;28;20203;-62
2021/12/04 00:22:56;;;;;;;9.80;1.80;;;20.20;99.90;;;;;;5063598;28;20517;-62
2021/12/04 00:25:23;;;;;;;10.57;1.58;;;20.20;99.90;;;;;;5065218;28;20278;-62
2021/12/04 00:27:50;;;;;;;7.20;1.60;;;20.20;99.90;;;;;;5053603;28;20286;-61
2021/12/04 00:30:17;;;;;;;6.20;1.50;;;20.20;99.90;;;;;;5059530;28;20221;-62
2021/12/04 00:32:55;;;;;;;6.55;1.40;;;20.20;99.90;;;;;;5059166;28;20190;-62
2021/12/04 00:49:11;;;;;;;8.27;1.92;;;20.10;99.90;;;;;;5065498;28;20223;-60
2021/12/04 00:51:45;;;;;;;10.77;1.90;;;20.10;99.90;;;;;;5049022;28;20220;-59
2021/12/04 00:54:13;;;;;;;15.13;2.38;;;20.30;99.90;;;;;;5077033;28;20181;-58
2021/12/04 00:56:42;;;;;;;9.65;2.30;;;20.40;99.90;;;;;;5061387;28;20202;-59
2021/12/04 00:59:10;;;;;;;7.00;1.48;;;20.50;99.90;;;;;;5065911;28;20640;-59
2021/12/04 01:01:42;;;;;;;6.00;1.52;;;20.60;99.90;;;;;;5065693;28;20170;-60
2021/12/04 01:04:14;;;;;;;7.97;2.10;;;20.60;99.90;;;;;;5060709;28;20592;-59
2021/12/04 01:06:42;;;;;;;8.55;1.65;;;20.60;99.90;;;;;;5059043;28;20178;-60
2021/12/04 01:09:12;;;;;;;7.32;1.77;;;20.60;99.90;;;;;;5054092;28;20231;-60
2021/12/04 01:11:43;;;;;;;9.32;1.60;;;20.60;99.90;;;;;;5053954;28;20257;-58
2021/12/04 01:14:12;;;;;;;9.82;1.65;;;20.70;99.90;;;;;;5059477;28;20221;-59
2021/12/04 01:16:40;;;;;;;12.20;2.67;;;21.00;99.90;;;;;;5056577;28;20218;-59
2021/12/04 01:19:07;;;;;;;9.20;1.48;;;21.00;99.90;;;;;;5057944;28;20170;-60
2021/12/04 01:21:34;;;;;;;7.72;1.58;;;21.10;99.90;;;;;;5064830;28;20261;-59
2021/12/04 01:24:02;;;;;;;8.95;1.95;;;20.90;99.90;;;;;;5065228;28;20182;-60
2021/12/04 01:26:29;;;;;;;9.52;1.83;;;20.80;99.90;;;;;;5063019;28;20186;-58
2021/12/04 01:28:56;;;;;;;9.27;1.75;;;20.60;99.90;;;;;;5063101;28;20692;-61
2021/12/04 01:31:23;;;;;;;10.40;1.95;;;20.60;99.90;;;;;;5065335;28;20185;-60
2021/12/04 01:33:50;;;;;;;10.43;2.35;;;20.50;99.90;;;;;;5065147;28;20178;-59
2021/12/04 01:36:18;;;;;;;5.90;1.55;;;20.50;99.90;;;;;;5052629;28;20271;-58
2021/12/04 01:38:45;;;;;;;8.90;2.33;;;20.30;99.90;;;;;;5063965;28;20170;-59
2021/12/04 01:41:12;;;;;;;7.07;1.90;;;20.40;99.90;;;;;;5065385;28;20173;-59
2021/12/04 01:43:40;;;;;;;4.47;1.70;;;20.40;99.90;;;;;;5066205;28;20170;-59
2021/12/04 01:46:07;;;;;;;8.90;1.98;;;20.50;99.90;;;;;;5059040;28;20194;-59
2021/12/04 01:48:34;;;;;;;10.88;2.10;;;20.60;99.90;;;;;;5064905;28;20178;-60
2021/12/04 01:51:01;;;;;;;16.85;2.22;;;20.50;99.90;;;;;;5065898;28;20235;-59
2021/12/04 01:53:28;;;;;;;11.93;1.90;;;20.50;99.90;;;;;;5066113;28;20177;-59
2021/12/04 01:55:57;;;;;;;9.35;2.10;;;20.60;99.90;;;;;;5051148;28;20660;-58
2021/12/04 01:58:25;;;;;;;10.45;1.75;;;20.50;99.90;;;;;;5064813;28;20198;-59
2021/12/04 02:00:53;;;;;;;12.00;1.83;;;20.50;99.90;;;;;;5066072;28;20250;-58
2021/12/04 02:03:20;;;;;;;7.32;1.80;;;20.60;99.90;;;;;;5059118;28;20189;-61
2021/12/04 02:05:49;;;;;;;8.52;1.77;;;20.50;99.90;;;;;;5064057;28;20605;-59
2021/12/04 02:08:19;;;;;;;11.63;2.20;;;20.60;99.90;;;;;;5065422;28;20181;-59
2021/12/04 02:10:47;;;;;;;9.85;1.60;;;20.60;99.90;;;;;;5064600;28;20169;-59
2021/12/04 02:13:15;;;;;;;11.68;1.73;;;20.60;99.90;;;;;;5049371;28;20178;-59
2021/12/04 02:15:43;;;;;;;4.05;1.30;;;20.70;99.90;;;;;;5046699;28;20618;-61
2021/12/04 02:18:12;;;;;;;11.15;1.45;;;20.70;99.90;;;;;;5044836;28;20210;-59
2021/12/04 02:20:39;;;;;;;8.18;1.50;;;20.90;99.90;;;;;;5057104;28;20544;-59
2021/12/04 02:23:08;;;;;;;8.18;1.10;;;21.00;99.90;;;;;;5042924;28;20174;-61
2021/12/04 02:25:36;;;;;;;7.75;1.27;;;21.00;99.90;;;;;;5055971;28;20190;-60
2021/12/04 02:28:04;;;;;;;5.47;1.20;;;20.90;99.90;;;;;;5059589;28;20184;-59
2021/12/04 02:30:36;;;;;;;5.57;1.38;;;20.90;99.90;;;;;;5070141;28;20330;-59
2021/12/04 02:33:11;;;;;;;4.50;1.23;;;20.90;99.90;;;;;;5058540;28;20190;-59
2021/12/04 02:35:41;;;;;;;7.13;1.27;;;20.90;99.90;;;;;;5055838;28;20182;-59
2021/12/04 02:38:09;;;;;;;5.75;1.00;;;21.00;99.90;;;;;;5043787;28;20206;-60
2021/12/04 02:40:36;;;;;;;6.10;1.50;;;21.20;99.90;;;;;;5047105;28;20272;-61
2021/12/04 02:43:03;;;;;;;6.22;1.45;;;21.40;99.90;;;;;;5043305;28;20205;-59
2021/12/04 02:45:30;;;;;;;6.68;1.67;;;21.60;99.90;;;;;;5043279;28;20182;-59
2021/12/04 02:47:57;;;;;;;9.82;1.75;;;21.80;99.90;;;;;;5043301;28;20186;-59
2021/12/04 02:50:25;;;;;;;3.75;1.20;;;21.90;99.90;;;;;;5059349;28;20170;-59
2021/12/04 02:52:51;;;;;;;4.80;1.33;;;21.80;99.90;;;;;;5047609;28;20185;-59
2021/12/04 02:55:19;;;;;;;4.43;1.55;;;21.70;99.90;;;;;;5062843;28;20213;-57
2021/12/04 02:57:47;;;;;;;6.13;0.90;;;21.60;99.90;;;;;;5063314;28;20205;-60
2021/12/04 03:00:20;;;;;;;4.35;1.40;;;21.40;99.90;;;;;;5064547;28;20165;-59
2021/12/04 03:02:48;;;;;;;4.95;1.35;;;21.20;99.90;;;;;;5065128;28;20648;-58
2021/12/04 03:05:21;;;;;;;6.30;1.73;;;21.10;99.90;;;;;;5062564;28;20633;-58
2021/12/04 03:07:49;;;;;;;4.10;1.45;;;21.20;99.90;;;;;;5062860;28;20552;-59
2021/12/04 03:10:16;;;;;;;8.15;1.33;;;21.20;99.90;;;;;;5051308;28;20208;-60
2021/12/04 03:12:43;;;;;;;8.82;1.60;;;21.30;99.90;;;;;;5063920;28;20169;-60
2021/12/04 03:15:10;;;;;;;9.52;1.83;;;21.30;99.90;;;;;;5053580;28;20260;-58
2021/12/04 03:17:38;;;;;;;6.72;1.60;;;21.30;99.90;;;;;;5057264;28;20313;-60
2021/12/04 03:20:07;;;;;;;6.72;1.50;;;21.50;99.90;;;;;;5062072;28;20678;-60
2021/12/04 03:22:34;;;;;;;4.38;1.13;;;21.30;99.90;;;;;;5062167;28;20285;-60
2021/12/04 03:25:01;;;;;;;3.72;1.13;;;21.50;99.90;;;;;;5054887;28;20197;-60
2021/12/04 03:27:31;;;;;;;11.23;1.20;;;21.60;99.90;;;;;;5050951;28;20539;-60
2021/12/04 03:30:01;;;;;;;6.18;1.30;;;21.50;99.90;;;;;;5064880;28;20166;-58
2021/12/04 03:41:06;;;;;;;12.63;1.98;;;21.40;99.90;;;;;;5054057;28;20193;-59
2021/12/04 03:43:34;;;;;;;7.95;1.42;;;21.30;99.90;;;;;;5043106;28;20372;-59
2021/12/04 03:46:02;;;;;;;8.10;1.70;;;21.40;99.90;;;;;;5041241;28;20191;-59
2021/12/04 03:51:04;;;;;;;5.72;1.35;;;21.30;99.90;;;;;;5056374;28;20169;-60
2021/12/04 03:53:32;;;;;;;5.82;1.60;;;21.30;99.90;;;;;;5046240;28;20178;-60
2021/12/04 03:55:59;;;;;;;5.78;1.38;;;21.60;99.90;;;;;;5059059;28;20202;-60
2021/12/04 03:58:26;;;;;;;7.22;1.45;;;21.70;99.90;;;;;;5044633;28;20252;-60
2021/12/04 04:00:53;;;;;;;8.82;1.40;;;21.70;99.90;;;;;;5054891;28;20178;-60
2021/12/04 04:03:21;;;;;;;7.95;1.10;;;22.00;99.90;;;;;;5044704;28;20190;-59
2021/12/04 04:05:48;;;;;;;6.10;1.42;;;21.90;99.90;;;;;;5045127;28;20205;-60
2021/12/04 04:08:16;;;;;;;6.80;1.50;;;21.60;99.90;;;;;;5058229;28;20178;-60
2021/12/04 04:10:43;;;;;;;8.38;1.38;;;21.60;99.90;;;;;;5055226;28;20178;-59
2021/12/04 04:13:12;;;;;;;4.68;1.45;;;21.40;99.90;;;;;;5056829;28;20212;-60
2021/12/04 04:15:40;;;;;;;9.48;1.65;;;21.30;99.90;;;;;;5061826;28;20193;-59
2021/12/04 04:18:07;;;;;;;6.65;1.50;;;21.10;99.90;;;;;;5053662;28;20592;-59
2021/12/04 04:20:34;;;;;;;6.85;1.52;;;21.10;99.90;;;;;;5064563;28;20216;-59
2021/12/04 04:23:01;;;;;;;6.18;1.67;;;21.10;99.90;;;;;;5063696;28;20182;-60
2021/12/04 04:25:28;;;;;;;15.00;2.35;;;21.10;99.90;;;;;;5055436;28;20210;-59
2021/12/04 04:27:55;;;;;;;9.82;2.08;;;21.10;99.90;;;;;;5061484;28;20227;-59
2021/12/04 04:30:22;;;;;;;10.95;2.08;;;21.00;99.90;;;;;;5064861;28;20683;-58
2021/12/04 04:32:51;;;;;;;12.88;2.40;;;20.90;99.90;;;;;;5058017;28;20181;-58
2021/12/04 04:35:21;;;;;;;10.15;2.05;;;20.90;99.90;;;;;;5061245;28;20260;-59
2021/12/04 04:38:10;;;;;;;11.02;2.45;;;20.80;99.90;;;;;;5054088;28;20224;-60
2021/12/04 05:00:08;;;;;;;9.15;1.85;;;20.70;99.90;;;;;;5068510;28;20212;-59
2021/12/04 05:11:08;;;;;;;12.73;3.70;;;20.40;99.90;;;;;;5062857;28;20597;-59
2021/12/04 05:13:36;;;;;;;8.77;2.53;;;20.50;99.90;;;;;;5066536;28;20244;-60
2021/12/04 05:16:17;;;;;;;17.92;3.47;;;20.40;99.90;;;;;;5064122;28;20198;-58
2021/12/04 05:19:01;;;;;;;13.00;2.88;;;20.40;99.90;;;;;;5057681;28;20251;-60
2021/12/04 05:21:28;;;;;;;11.10;3.22;;;20.40;99.90;;;;;;5047642;28;20166;-60
2021/12/04 05:23:56;;;;;;;10.57;3.08;;;20.40;99.90;;;;;;5060805;28;20631;-61
2021/12/04 05:26:28;;;;;;;15.05;3.70;;;20.40;99.90;;;;;;5060285;28;20735;-58
2021/12/04 05:29:01;;;;;;;12.95;3.72;;;20.40;99.90;;;;;;5058963;28;20182;-60
2021/12/04 05:31:29;;;;;;;18.65;3.47;;;20.50;99.90;;;;;;5060356;28;20185;-60
2021/12/04 05:33:56;;;;;;;15.15;4.03;;;20.40;99.90;;;;;;5065686;28;20269;-61
2021/12/04 05:36:24;;;;;;;13.85;3.65;;;20.40;99.90;;;;;;5063883;28;20190;-59
2021/12/04 05:38:51;;;;;;;14.02;4.28;;;20.40;99.90;;;;;;5065349;28;20583;-60
2021/12/04 05:41:18;;;;;;;14.55;3.83;;;20.40;99.90;;;;;;5064541;28;20181;-59
2021/12/04 05:43:46;;;;;;;8.60;3.65;;;20.30;99.90;;;;;;5057782;28;20170;-60
2021/12/04 05:46:16;;;;;;;16.85;4.68;;;20.30;99.90;;;;;;5053236;28;20225;-59
2021/12/04 05:48:49;;;;;;;18.95;4.13;;;20.30;99.90;;;;;;5063299;28;20162;-58
2021/12/04 05:51:48;;;;;;;14.95;4.53;;;20.30;99.90;;;;;;5065393;28;20169;-59
2021/12/04 05:57:01;;;;;;;11.77;4.30;;;20.20;99.90;;;;;;5051395;28;20221;-60
2021/12/04 05:59:28;;;;;;;12.40;4.20;;;20.20;99.90;;;;;;5054040;28;20186;-60
2021/12/04 06:01:56;;;;;;;10.60;4.00;;;20.20;99.90;;;;;;5062388;28;20173;-60
2021/12/04 06:04:24;;;;;;;18.13;4.53;;;20.20;99.90;;;;;;5058023;28;20603;-58
2021/12/04 06:06:51;;;;;;;15.10;4.80;;;20.20;99.90;;;;;;5066472;28;20192;-59
2021/12/04 06:09:18;;;;;;;19.83;5.45;;;20.20;99.90;;;;;;5065811;28;20181;-59
2021/12/04 06:11:47;;;;;;;11.73;4.10;;;20.30;99.90;;;;;;5064274;28;20531;-60
2021/12/04 06:14:14;;;;;;;18.45;5.10;;;20.30;99.90;;;;;;5062828;28;20270;-61
2021/12/04 06:16:41;;;;;;;9.52;4.15;;;20.30;99.90;;;;;;5066345;28;20235;-60
2021/12/04 06:19:23;;;;;;;11.75;4.55;;;20.20;99.90;;;;;;5056720;28;20174;-59
2021/12/04 06:24:35;;;;;;;14.25;4.93;;;20.10;99.90;;;;;;5065490;28;20589;-59
2021/12/04 06:27:03;;;;;;;18.75;5.38;;;20.10;99.90;;;;;;5057563;28;20212;-59
2021/12/04 06:29:30;;;;;;;25.80;5.50;;;20.10;99.90;;;;;;5066812;28;20182;-59
2021/12/04 06:31:57;;;;;;;16.90;5.32;;;20.00;99.90;;;;;;5066374;28;20170;-59
2021/12/04 06:34:24;;;;;;;11.38;4.60;;;20.00;99.90;;;;;;5059192;28;20201;-59
2021/12/04 06:36:51;;;;;;;14.63;5.13;;;20.00;99.90;;;;;;5066149;28;20309;-59
2021/12/04 06:39:17;;;;;;;16.67;5.68;;;19.90;99.90;;;;;;5049773;28;20239;-58
2021/12/04 06:41:45;;;;;;;18.17;5.82;;;19.90;99.90;;;;;;5054611;28;20170;-60
2021/12/04 06:44:12;;;;;;;13.13;5.35;;;20.00;99.90;;;;;;5066135;28;20170;-59
2021/12/04 06:46:39;;;;;;;17.13;5.68;;;20.00;99.90;;;;;;5055758;28;20269;-59
2021/12/04 06:49:13;;;;;;;12.93;5.40;;;20.00;99.90;;;;;;5058948;28;20583;-59
2021/12/04 06:51:44;;;;;;;23.73;6.07;;;20.10;99.90;;;;;;5056639;28;20173;-59
2021/12/04 06:54:19;;;;;;;15.85;5.75;;;20.00;99.90;;;;;;5062308;28;20169;-59
2021/12/04 06:56:46;;;;;;;15.48;5.72;;;20.00;99.90;;;;;;5066174;28;20204;-59
2021/12/04 06:59:19;;;;;;;16.08;6.10;;;20.00;99.90;;;;;;5059318;28;20795;-59
2021/12/04 07:01:46;;;;;;;16.80;6.32;;;20.00;99.90;;;;;;5058367;28;20307;-59
2021/12/04 07:04:16;;;;;;;13.48;6.30;;;20.00;99.90;;;;;;5064993;28;20208;-59
2021/12/04 07:06:45;;;;;;;15.00;5.90;;;20.00;99.90;;;;;;5066140;28;20166;-59
2021/12/04 07:09:12;;;;;;;12.23;6.22;;;19.90;99.90;;;;;;5059421;28;20174;-58
2021/12/04 07:11:39;;;;;;;17.15;6.10;;;19.80;99.90;;;;;;5068475;28;20586;-59
2021/12/04 07:14:06;;;;;;;17.48;7.03;;;19.70;99.90;;;;;;5057654;28;20689;-58
2021/12/04 07:16:33;;;;;;;15.90;7.38;;;19.70;99.90;;;;;;5057797;28;20174;-59
2021/12/04 07:19:00;;;;;;;17.50;7.15;;;19.60;99.90;;;;;;5057727;28;20558;-59
2021/12/04 07:21:28;;;;;;;17.27;7.00;;;19.60;99.90;;;;;;5058232;28;20162;-58
2021/12/04 07:23:55;;;;;;;17.45;7.28;;;19.50;99.90;;;;;;5059157;28;20636;-58
2021/12/04 07:26:22;;;;;;;15.60;7.50;;;19.50;99.90;;;;;;5065919;28;20182;-60
2021/12/04 07:28:49;;;;;;;15.43;6.80;;;19.50;99.90;;;;;;5059986;28;20174;-61
2021/12/04 07:31:16;;;;;;;13.77;6.85;;;19.50;99.90;;;;;;5062384;28;20166;-59
2021/12/04 07:33:43;;;;;;;14.90;6.80;;;19.60;99.90;;;;;;5060514;28;20210;-59
2021/12/04 07:36:10;;;;;;;15.35;6.78;;;19.60;99.90;;;;;;5058196;28;20185;-59
2021/12/04 07:38:37;;;;;;;12.40;6.55;;;19.60;99.90;;;;;;5051079;28;20206;-59
2021/12/04 07:41:04;;;;;;;15.27;6.88;;;19.60;99.90;;;;;;5061060;28;20182;-59
2021/12/04 07:43:31;;;;;;;13.85;6.38;;;19.60;99.90;;;;;;5071832;28;20463;-61
2021/12/04 07:45:58;;;;;;;17.17;6.30;;;19.60;99.90;;;;;;5068527;28;20239;-59
2021/12/04 07:48:26;;;;;;;12.93;6.35;;;19.70;99.90;;;;;;5067911;28;20185;-59
2021/12/04 07:50:55;;;;;;;15.75;6.70;;;19.70;99.90;;;;;;5062587;28;20655;-59
2021/12/04 07:53:22;;;;;;;12.88;7.00;;;19.70;99.90;;;;;;5056458;28;20181;-59
2021/12/04 07:55:50;;;;;;;16.70;7.93;;;19.60;99.90;;;;;;5054454;28;20206;-62
2021/12/04 07:58:17;;;;;;;17.38;6.82;;;19.70;99.90;;;;;;5052906;28;20242;-64
2021/12/04 08:00:44;;;;;;;14.93;7.47;;;19.70;99.90;;;;;;5066052;28;20186;-65
2021/12/04 08:03:11;;;;;;;15.20;7.45;;;19.70;99.90;;;;;;5061251;28;20617;-64
2021/12/04 08:05:38;;;;;;;15.77;7.25;;;19.70;99.90;;;;;;5051402;28;20213;-63
2021/12/04 08:08:05;;;;;;;17.35;7.97;;;19.70;99.90;;;;;;5064202;28;20730;-63
2021/12/04 08:10:33;;;;;;;22.13;8.65;;;19.60;99.90;;;;;;5065661;28;20173;-65
2021/12/04 08:13:03;;;;;;;23.67;7.82;;;19.60;99.90;;;;;;5058558;28;20175;-68
2021/12/04 08:15:31;;;;;;;20.23;8.23;;;19.60;99.90;;;;;;5055945;28;20282;-65
2021/12/04 08:17:58;;;;;;;14.18;7.70;;;19.60;99.90;;;;;;5053120;28;20202;-63
2021/12/04 08:20:27;;;;;;;21.80;8.10;;;19.60;99.90;;;;;;5054118;28;20549;-65
2021/12/04 08:22:54;;;;;;;13.85;6.82;;;19.60;99.90;;;;;;5052700;28;20190;-64
2021/12/04 08:25:23;;;;;;;15.23;6.93;;;19.60;99.90;;;;;;5062359;28;20736;-64
2021/12/04 08:27:51;;;;;;;15.13;7.50;;;19.60;99.90;;;;;;5062453;28;20185;-64
2021/12/04 08:30:24;;;;;;;17.60;7.47;;;19.50;99.90;;;;;;5064845;28;20213;-64
2021/12/04 08:32:54;;;;;;;18.85;8.02;;;19.50;99.90;;;;;;5060645;28;20285;-65
2021/12/04 08:35:24;;;;;;;19.08;8.23;;;19.50;99.90;;;;;;5056432;28;20275;-58
2021/12/04 08:37:53;;;;;;;16.48;8.55;;;19.50;99.90;;;;;;5061685;28;20283;-59
2021/12/04 08:40:20;;;;;;;20.95;8.57;;;19.50;99.90;;;;;;5071160;28;20642;-60
2021/12/04 08:42:48;;;;;;;23.20;9.00;;;19.50;99.90;;;;;;5063699;28;20180;-59
2021/12/04 08:45:17;;;;;;;18.90;8.45;;;19.60;99.90;;;;;;5055159;28;20217;-59
2021/12/04 08:47:45;;;;;;;20.58;8.25;;;19.60;99.90;;;;;;5056916;28;20261;-60
2021/12/04 08:50:18;;;;;;;21.77;8.50;;;19.60;99.90;;;;;;5057881;28;20178;-59
2021/12/04 08:52:45;;;;;;;20.60;9.15;;;19.60;99.90;;;;;;5053475;28;20183;-59
2021/12/04 08:55:14;;;;;;;20.83;8.27;;;19.60;99.90;;;;;;5058072;28;20199;-60
2021/12/04 08:57:42;;;;;;;21.58;8.98;;;19.60;99.90;;;;;;5061142;28;20202;-58
2021/12/04 09:00:13;;;;;;;22.05;8.52;;;19.50;99.90;;;;;;5056437;28;20576;-59
2021/12/04 09:02:40;;;;;;;20.30;7.93;;;19.50;99.90;;;;;;5056968;28;20213;-58
2021/12/04 09:05:09;;;;;;;21.27;8.57;;;19.50;99.90;;;;;;5061122;28;20192;-58
2021/12/04 09:07:36;;;;;;;20.30;8.15;;;19.50;99.90;;;;;;5053729;28;20173;-60
2021/12/04 09:10:05;;;;;;;18.48;7.68;;;19.50;99.90;;;;;;5055003;28;20213;-58
2021/12/04 09:12:38;;;;;;;20.02;8.40;;;19.50;99.90;;;;;;5053359;28;20182;-59
2021/12/04 09:15:07;;;;;;;18.63;7.68;;;19.50;99.90;;;;;;5058818;28;20253;-59
2021/12/04 09:17:35;;;;;;;22.30;7.90;;;19.50;99.90;;;;;;5058281;28;20263;-59
2021/12/04 09:20:02;;;;;;;19.90;8.25;;;19.50;99.90;;;;;;5049741;28;20224;-58
2021/12/04 09:22:33;;;;;;;20.10;7.40;;;19.50;99.90;;;;;;5047404;28;20628;-60
2021/12/04 09:25:01;;;;;;;19.90;7.13;;;19.50;99.90;;;;;;5045742;28;20252;-59
2021/12/04 09:30:26;;;;;;;19.73;7.32;;;19.40;99.90;;;;;;5068582;28;20555;-58
2021/12/04 09:33:28;;;;;;;25.77;7.82;;;19.40;99.90;;;;;;5042895;28;20202;-59
2021/12/04 10:00:34;;;;;;;18.45;7.50;;;19.40;99.90;;;;;;5061257;28;20197;-60
2021/12/04 10:06:19;;;;;;;18.48;6.88;;;19.50;99.90;;;;;;5065149;28;20209;-59
2021/12/04 10:22:36;;;;;;;11.70;5.30;;;19.40;99.90;;;;;;5050562;28;20261;-61
2021/12/04 10:33:42;;;;;;;12.38;3.88;;;19.20;99.90;;;;;;5059166;28;20184;-60
2021/12/04 10:36:10;;;;;;;15.65;4.45;;;19.10;99.90;;;;;;5053593;28;20201;-61
2021/12/04 10:38:46;;;;;;;13.90;4.13;;;19.10;99.90;;;;;;5049343;28;20205;-60
2021/12/04 10:41:16;;;;;;;15.98;4.05;;;19.10;99.90;;;;;;5061744;28;20184;-59
2021/12/04 10:43:43;;;;;;;13.50;3.28;;;19.00;99.90;;;;;;5059316;28;22019;-59
2021/12/04 10:46:15;;;;;;;14.52;3.10;;;18.90;99.90;;;;;;5049936;28;20675;-60
2021/12/04 10:49:01;;;;;;;16.35;3.00;;;18.80;99.90;;;;;;5060038;28;20654;-60
2021/12/04 10:51:34;;;;;;;10.68;3.05;;;18.70;99.90;;;;;;5057422;28;20217;-61
2021/12/04 10:54:24;;;;;;;12.85;2.97;;;18.60;99.90;;;;;;5057606;28;20186;-60
2021/12/04 11:00:00;;;;;;;18.25;3.92;;;18.50;99.90;;;;;;5064650;28;20606;-60
2021/12/04 11:02:38;;;;;;;18.23;3.65;;;18.40;99.90;;;;;;5064999;28;20240;-59
2021/12/04 11:05:42;;;;;;;10.98;3.08;;;18.40;99.90;;;;;;5061028;28;20179;-59
2021/12/04 11:23:09;;;;;;;14.02;2.95;;;18.00;99.90;;;;;;5056371;28;20175;-59
2021/12/04 11:39:19;;;;;;;16.38;2.90;;;18.10;99.90;;;;;;5062348;28;20255;-59
2021/12/04 11:47:40;;;;;;;14.10;2.90;;;18.40;99.90;;;;;;5024304;28;20277;-60
2021/12/04 11:50:17;;;;;;;15.43;2.50;;;18.50;99.90;;;;;;5036439;28;20199;-61
2021/12/04 11:52:48;;;;;;;19.83;2.65;;;18.50;99.90;;;;;;5061190;28;20202;-59
2021/12/04 11:55:19;;;;;;;13.15;2.75;;;18.50;99.90;;;;;;5062325;28;20272;-59
2021/12/04 11:57:48;;;;;;;14.77;2.63;;;18.40;99.90;;;;;;5055579;28;20214;-61
2021/12/04 12:00:28;;;;;;;16.55;2.42;;;18.40;99.90;;;;;;5066656;28;20257;-60
2021/12/04 12:03:11;;;;;;;13.90;2.20;;;18.40;99.90;;;;;;5055650;28;20174;-60
2021/12/04 12:05:46;;;;;;;14.70;3.15;;;18.40;99.90;;;;;;5059322;28;20195;-58
2021/12/04 12:08:32;;;;;;;16.40;2.50;;;18.40;99.90;;;;;;5054995;28;20565;-59
2021/12/04 12:11:06;;;;;;;14.55;2.80;;;18.40;99.90;;;;;;5064809;28;20683;-60
2021/12/04 12:13:40;;;;;;;13.55;2.65;;;18.30;99.90;;;;;;5057325;28;20206;-59
2021/12/04 12:16:13;;;;;;;20.08;2.70;;;18.30;99.90;;;;;;5053957;28;20210;-59
2021/12/04 12:18:50;;;;;;;14.57;2.58;;;18.20;99.90;;;;;;5051543;28;20739;-59
2021/12/04 12:21:22;;;;;;;15.55;2.88;;;18.10;99.90;;;;;;5061720;28;20563;-59
2021/12/04 12:39:11;;;;;;;9.55;2.35;;;17.70;99.90;;;;;;5051942;28;20217;-60
2021/12/04 12:41:42;;;;;;;14.30;2.03;;;17.60;99.90;;;;;;5041248;28;20273;-61
2021/12/04 12:44:15;;;;;;;11.68;2.13;;;17.60;99.90;;;;;;5039741;28;20652;-59
2021/12/04 12:46:51;;;;;;;13.23;2.42;;;17.60;99.90;;;;;;5024977;28;20190;-59
2021/12/04 12:49:24;;;;;;;9.98;2.30;;;17.70;99.90;;;;;;5037530;28;20167;-59
2021/12/04 12:52:20;;;;;;;10.63;1.98;;;17.70;99.90;;;;;;5044145;28;20187;-59
2021/12/04 12:54:50;;;;;;;8.38;1.90;;;17.70;99.90;;;;;;5043172;28;20186;-59
2021/12/04 12:57:23;;;;;;;13.40;1.92;;;17.70;99.90;;;;;;5043200;28;20218;-59
2021/12/04 13:14:12;;;;;;;12.18;2.70;;;17.80;99.90;;;;;;5040727;28;20599;-59
2021/12/04 13:16:42;;;;;;;12.52;2.10;;;17.90;99.90;;;;;;5044030;28;20187;-59
2021/12/04 13:19:14;;;;;;;10.98;2.38;;;17.80;99.90;;;;;;5064674;28;20167;-58
2021/12/04 13:21:45;;;;;;;12.25;1.67;;;17.70;99.90;;;;;;5066165;28;20173;-58
2021/12/04 13:24:15;;;;;;;15.13;2.65;;;17.70;99.90;;;;;;5062853;28;20227;-59
2021/12/04 13:26:53;;;;;;;8.88;2.25;;;17.80;99.90;;;;;;5066653;28;20292;-59
2021/12/04 13:29:23;;;;;;;10.43;2.42;;;17.70;99.90;;;;;;5057043;28;20185;-59
2021/12/04 13:31:59;;;;;;;12.18;2.22;;;17.70;99.90;;;;;;5060104;28;20167;-60
2021/12/04 13:34:29;;;;;;;14.68;2.45;;;17.70;99.90;;;;;;5064698;28;20221;-60
2021/12/04 13:36:58;;;;;;;11.13;2.67;;;17.70;99.90;;;;;;5061576;28;20216;-60
2021/12/04 13:39:26;;;;;;;10.38;2.17;;;17.70;99.90;;;;;;5054886;28;20170;-60
2021/12/04 13:41:54;;;;;;;11.50;2.28;;;17.70;99.90;;;;;;5066293;28;20182;-60
2021/12/04 13:44:25;;;;;;;12.55;2.53;;;17.80;99.90;;;;;;5066508;28;20197;-60
2021/12/04 13:47:02;;;;;;;9.13;2.28;;;17.80;99.90;;;;;;5065202;28;20218;-59
2021/12/04 13:49:34;;;;;;;8.85;1.90;;;17.90;99.90;;;;;;5065870;28;20266;-59
2021/12/04 13:52:08;;;;;;;16.63;3.08;;;17.90;99.90;;;;;;5065248;28;20233;-61
2021/12/04 13:54:44;;;;;;;9.82;2.15;;;18.00;99.90;;;;;;5066012;28;20186;-59
2021/12/04 13:57:12;;;;;;;6.75;1.80;;;18.00;99.90;;;;;;5052653;28;20323;-59
2021/12/04 13:59:40;;;;;;;11.25;2.13;;;18.10;99.90;;;;;;5066277;28;20197;-59
2021/12/04 14:02:18;;;;;;;8.57;1.85;;;18.10;99.90;;;;;;5065830;28;20197;-58
2021/12/04 14:04:53;;;;;;;12.07;1.98;;;18.20;99.90;;;;;;5059467;28;20221;-59
2021/12/04 14:07:20;;;;;;;7.45;1.60;;;18.20;99.90;;;;;;5060185;28;20774;-59
2021/12/04 14:09:47;;;;;;;9.40;1.60;;;18.20;99.90;;;;;;5059880;28;20166;-60
2021/12/04 14:12:14;;;;;;;13.10;2.10;;;18.20;99.90;;;;;;5066036;28;20186;-61
2021/12/04 14:14:41;;;;;;;8.68;2.22;;;18.30;99.90;;;;;;5064720;28;20704;-59
2021/12/04 14:17:14;;;;;;;8.32;1.48;;;18.30;99.90;;;;;;5065915;28;20691;-60
2021/12/04 14:19:42;;;;;;;12.85;1.67;;;18.30;99.90;;;;;;5060049;28;20600;-59
2021/12/04 14:22:15;;;;;;;11.13;1.88;;;18.40;99.90;;;;;;5052454;28;20235;-59
2021/12/04 14:24:49;;;;;;;8.90;1.80;;;18.40;99.90;;;;;;5066347;28;20212;-60
2021/12/04 14:27:23;;;;;;;9.32;1.65;;;18.40;99.90;;;;;;5065711;28;20174;-58
2021/12/04 14:29:54;;;;;;;14.68;2.35;;;18.40;99.90;;;;;;5065906;28;20219;-60
2021/12/04 14:32:23;;;;;;;10.02;1.60;;;18.40;99.90;;;;;;5066361;28;20181;-59
2021/12/04 14:35:03;;;;;;;10.70;1.85;;;18.40;99.90;;;;;;5059781;28;20205;-59
2021/12/04 14:37:34;;;;;;;12.63;1.85;;;18.50;99.90;;;;;;5065639;28;20591;-61
2021/12/04 14:40:03;;;;;;;11.43;1.70;;;18.50;99.90;;;;;;5065734;28;20170;-60
2021/12/04 14:42:32;;;;;;;14.68;2.05;;;18.50;99.90;;;;;;5066070;28;20185;-59
2021/12/04 14:45:06;;;;;;;15.57;1.80;;;18.50;99.90;;;;;;5052117;28;20641;-58
2021/12/04 14:47:41;;;;;;;6.03;1.33;;;18.50;99.90;;;;;;5065686;28;20178;-61
2021/12/04 14:50:10;;;;;;;8.73;1.45;;;18.50;99.90;;;;;;5051075;28;20177;-60
2021/12/04 14:52:38;;;;;;;10.98;2.15;;;18.50;99.90;;;;;;5065530;28;20265;-59
2021/12/04 14:55:16;;;;;;;10.48;1.73;;;18.50;99.90;;;;;;5065199;28;20190;-60
2021/12/04 14:57:44;;;;;;;10.63;1.40;;;18.50;99.90;;;;;;5065382;28;20240;-62
2021/12/04 15:00:34;;;;;;;9.40;1.48;;;18.50;99.90;;;;;;5065011;28;20178;-60
2021/12/04 15:03:09;;;;;;;9.05;1.60;;;18.50;99.90;;;;;;5065582;28;20174;-60
2021/12/04 15:05:46;;;;;;;8.90;1.67;;;18.50;99.90;;;;;;5064568;28;20573;-59
2021/12/04 15:08:17;;;;;;;10.07;1.88;;;18.50;99.90;;;;;;5050393;28;20646;-58
2021/12/04 15:11:01;;;;;;;13.00;1.42;;;18.40;99.90;;;;;;5065280;28;20182;-60
2021/12/04 15:13:31;;;;;;;9.15;1.48;;;18.40;99.90;;;;;;5065267;28;20210;-60
2021/12/04 15:16:03;;;;;;;7.57;1.48;;;18.40;99.90;;;;;;5063563;28;20236;-59
2021/12/04 15:18:39;;;;;;;9.65;1.40;;;18.30;99.90;;;;;;5044672;28;20586;-59
2021/12/04 15:21:17;;;;;;;9.10;1.25;;;18.30;99.90;;;;;;5060964;28;20567;-60
2021/12/04 15:23:46;;;;;;;7.50;1.60;;;18.30;99.90;;;;;;5064761;28;20632;-60
2021/12/04 15:26:17;;;;;;;9.52;1.70;;;18.30;99.90;;;;;;5065220;28;20183;-60
2021/12/04 15:28:48;;;;;;;6.28;1.40;;;18.30;99.90;;;;;;5063950;28;20174;-62
2021/12/04 15:31:20;;;;;;;7.80;1.60;;;18.20;99.90;;;;;;5066220;28;20236;-59
2021/12/04 15:33:50;;;;;;;8.55;1.63;;;18.20;99.90;;;;;;5067965;28;20186;-59
2021/12/04 15:36:28;;;;;;;12.57;2.25;;;18.20;99.90;;;;;;5068739;28;20307;-59
2021/12/04 15:38:58;;;;;;;11.10;2.03;;;18.10;99.90;;;;;;5068553;28;20632;-60
2021/12/04 15:44:42;;;;;;;8.90;1.50;;;18.10;99.90;;;;;;5068482;28;20222;-60
2021/12/04 15:47:23;;;;;;;6.43;1.33;;;18.10;99.90;;;;;;5068733;28;20182;-60
2021/12/04 15:53:11;;;;;;;8.43;1.08;;;18.20;99.90;;;;;;5065846;28;20598;-59
2021/12/04 15:55:52;;;;;;;12.13;2.33;;;18.20;99.90;;;;;;5065581;28;20631;-60
2021/12/04 15:58:22;;;;;;;13.10;1.63;;;18.20;99.90;;;;;;5041116;28;20207;-58
2021/12/04 16:01:03;;;;;;;6.80;1.40;;;18.10;99.90;;;;;;5060849;28;20174;-61